Time;durP1;ratioP1;P1;durP2;ratioP2;P2;SDS_P1;SDS_P2;PMS_P1;PMS_P2;Temp;Humidity;BMP_temperature;BMP_pressure;BME280_temperature;BME280_humidity;BME280_pressure;Samples;Min_cycle;Max_cycle;Signal;HPM_P1;HPM_P2
2023/08/14 00:00:46;;;;;;;8.20;4.93;;;;;;;;;;5075821;28;20563;-62
2023/08/14 00:03:13;;;;;;;6.70;5.00;;;;;;;;;;5075980;28;20443;-63
2023/08/14 00:05:40;;;;;;;8.47;5.60;;;;;;;;;;5075998;28;20841;-63
2023/08/14 00:08:07;;;;;;;10.93;5.80;;;;;;;;;;5076050;28;20534;-62
2023/08/14 00:10:34;;;;;;;8.20;5.47;;;;;;;;;;5075903;28;20526;-62
2023/08/14 00:13:03;;;;;;;9.53;5.50;;;;;;;;;;5075912;28;20743;-62
2023/08/14 00:15:30;;;;;;;10.13;5.63;;;;;;;;;;5076000;28;20436;-62
2023/08/14 00:17:57;;;;;;;7.03;5.60;;;;;;;;;;5075912;28;20521;-62
2023/08/14 00:20:25;;;;;;;9.77;5.03;;;;;;;;;;5076140;28;20445;-62
2023/08/14 00:22:52;;;;;;;8.93;5.67;;;;;;;;;;5075480;28;20905;-63
2023/08/14 00:25:19;;;;;;;6.23;5.60;;;;;;;;;;5076254;28;20527;-63
2023/08/14 00:27:46;;;;;;;9.10;5.17;;;;;;;;;;5075663;28;20530;-63
2023/08/14 00:30:15;;;;;;;8.53;5.73;;;;;;;;;;5075578;28;20436;-62
2023/08/14 00:32:42;;;;;;;7.40;5.40;;;;;;;;;;5075724;28;20879;-62
2023/08/14 00:35:09;;;;;;;8.13;6.20;;;;;;;;;;5075762;28;20455;-63
2023/08/14 00:37:44;;;;;;;7.17;5.57;;;;;;;;;;5075681;28;20446;-63
2023/08/14 00:40:11;;;;;;;5.83;5.10;;;;;;;;;;5076064;28;20530;-63
2023/08/14 00:42:39;;;;;;;11.40;6.03;;;;;;;;;;5075343;28;20480;-62
2023/08/14 00:45:06;;;;;;;8.33;6.03;;;;;;;;;;5076214;28;20435;-62
2023/08/14 00:47:35;;;;;;;5.80;5.20;;;;;;;;;;5075687;28;20615;-63
2023/08/14 00:50:03;;;;;;;9.50;5.77;;;;;;;;;;5075434;28;20444;-62
2023/08/14 00:52:32;;;;;;;8.17;6.87;;;;;;;;;;5075222;28;20485;-63
2023/08/14 00:55:00;;;;;;;6.70;5.60;;;;;;;;;;5075295;28;20500;-63
2023/08/14 00:57:27;;;;;;;6.80;5.83;;;;;;;;;;5075344;28;20835;-63
2023/08/14 00:59:55;;;;;;;7.73;5.80;;;;;;;;;;5075672;28;20445;-63
2023/08/14 01:02:22;;;;;;;8.40;5.53;;;;;;;;;;5074812;28;20479;-63
2023/08/14 01:04:51;;;;;;;8.93;5.70;;;;;;;;;;5074999;28;20448;-63
2023/08/14 01:07:18;;;;;;;6.93;5.03;;;;;;;;;;5075221;28;20471;-63
2023/08/14 01:09:46;;;;;;;9.77;5.60;;;;;;;;;;5075299;28;20882;-63
2023/08/14 01:12:19;;;;;;;6.63;5.30;;;;;;;;;;5074982;28;20531;-62
2023/08/14 01:14:48;;;;;;;9.53;6.00;;;;;;;;;;5075645;28;20498;-63
2023/08/14 01:17:17;;;;;;;6.10;5.07;;;;;;;;;;5074888;28;20442;-63
2023/08/14 01:19:46;;;;;;;12.73;5.40;;;;;;;;;;5074872;28;20447;-62
2023/08/14 01:22:18;;;;;;;12.73;5.30;;;;;;;;;;5074378;28;20485;-63
2023/08/14 01:24:53;;;;;;;8.23;6.10;;;;;;;;;;5075204;28;20538;-63
2023/08/14 01:27:23;;;;;;;6.10;5.50;;;;;;;;;;5074663;28;20446;-63
2023/08/14 01:29:54;;;;;;;9.90;6.23;;;;;;;;;;5074313;28;20530;-62
2023/08/14 01:32:21;;;;;;;6.53;5.70;;;;;;;;;;5074767;28;20469;-63
2023/08/14 01:34:48;;;;;;;9.43;6.30;;;;;;;;;;5074621;28;20439;-63
2023/08/14 01:37:19;;;;;;;9.53;5.90;;;;;;;;;;5074439;28;20464;-63
2023/08/14 01:39:49;;;;;;;7.37;5.40;;;;;;;;;;5074822;28;20523;-62
2023/08/14 01:42:19;;;;;;;9.37;5.50;;;;;;;;;;5074705;28;20562;-63
2023/08/14 01:44:50;;;;;;;7.00;5.97;;;;;;;;;;5075012;28;20435;-63
2023/08/14 01:47:18;;;;;;;6.10;5.50;;;;;;;;;;5074210;28;20431;-63
2023/08/14 01:49:45;;;;;;;7.40;6.23;;;;;;;;;;5073982;28;20928;-63
2023/08/14 01:52:12;;;;;;;6.60;6.00;;;;;;;;;;5074588;28;20437;-62
2023/08/14 01:54:39;;;;;;;6.20;5.60;;;;;;;;;;5074215;28;20471;-62
2023/08/14 01:57:07;;;;;;;11.20;6.43;;;;;;;;;;5074143;28;20428;-62
2023/08/14 01:59:37;;;;;;;8.33;5.50;;;;;;;;;;5073227;28;20443;-62
2023/08/14 02:02:06;;;;;;;7.33;5.90;;;;;;;;;;5073865;28;20592;-62
2023/08/14 02:04:33;;;;;;;9.30;6.17;;;;;;;;;;5073455;28;20526;-62
2023/08/14 02:07:00;;;;;;;14.13;6.27;;;;;;;;;;5073629;28;20440;-62
2023/08/14 02:09:28;;;;;;;9.13;6.73;;;;;;;;;;5073447;28;20438;-63
2023/08/14 02:11:55;;;;;;;8.23;7.00;;;;;;;;;;5074057;28;20440;-63
2023/08/14 02:14:22;;;;;;;7.70;6.33;;;;;;;;;;5073690;28;20819;-62
2023/08/14 02:16:49;;;;;;;8.90;6.50;;;;;;;;;;5073826;28;20797;-62
2023/08/14 02:19:19;;;;;;;7.17;5.40;;;;;;;;;;5073103;28;20929;-62
2023/08/14 02:21:47;;;;;;;9.43;6.27;;;;;;;;;;5073463;28;20564;-62
2023/08/14 02:24:14;;;;;;;6.70;5.90;;;;;;;;;;5073774;28;20451;-62
2023/08/14 02:26:41;;;;;;;7.80;6.53;;;;;;;;;;5073463;28;20959;-62
2023/08/14 02:29:08;;;;;;;8.20;6.80;;;;;;;;;;5072929;28;20932;-62
2023/08/14 02:31:35;;;;;;;11.17;6.10;;;;;;;;;;5073043;28;20934;-62
2023/08/14 02:34:03;;;;;;;9.43;6.13;;;;;;;;;;5072889;28;20957;-62
2023/08/14 02:36:32;;;;;;;12.53;6.67;;;;;;;;;;5073166;28;21021;-62
2023/08/14 02:38:59;;;;;;;7.63;6.93;;;;;;;;;;5072955;28;20441;-62
2023/08/14 02:41:26;;;;;;;8.40;6.70;;;;;;;;;;5073262;28;20464;-62
2023/08/14 02:43:53;;;;;;;8.80;7.40;;;;;;;;;;5072821;28;20443;-62
2023/08/14 02:46:21;;;;;;;8.43;6.80;;;;;;;;;;5072928;28;20915;-62
2023/08/14 02:48:48;;;;;;;7.80;6.77;;;;;;;;;;5073261;28;20561;-63
2023/08/14 02:51:16;;;;;;;14.10;7.20;;;;;;;;;;5073070;28;20436;-63
2023/08/14 02:53:45;;;;;;;8.10;6.97;;;;;;;;;;5072823;28;20477;-63
2023/08/14 02:56:12;;;;;;;8.37;6.30;;;;;;;;;;5073006;28;20542;-62
2023/08/14 02:58:39;;;;;;;8.47;6.60;;;;;;;;;;5073459;28;20451;-63
2023/08/14 03:01:06;;;;;;;9.60;7.77;;;;;;;;;;5072870;28;20955;-63
2023/08/14 03:03:34;;;;;;;12.50;7.93;;;;;;;;;;5072911;28;20800;-63
2023/08/14 03:06:01;;;;;;;9.53;7.50;;;;;;;;;;5072991;28;20526;-63
2023/08/14 03:08:28;;;;;;;8.17;7.37;;;;;;;;;;5072611;28;20470;-63
2023/08/14 03:10:56;;;;;;;9.83;7.10;;;;;;;;;;5072149;28;20920;-63
2023/08/14 03:13:24;;;;;;;9.20;7.37;;;;;;;;;;5072854;28;20451;-63
2023/08/14 03:15:51;;;;;;;8.63;7.67;;;;;;;;;;5072977;28;20537;-63
2023/08/14 03:18:18;;;;;;;9.33;7.37;;;;;;;;;;5073090;28;20528;-63
2023/08/14 03:20:45;;;;;;;10.13;7.33;;;;;;;;;;5072667;28;20525;-62
2023/08/14 03:23:13;;;;;;;9.40;7.33;;;;;;;;;;5072405;28;20482;-62
2023/08/14 03:25:40;;;;;;;9.67;8.50;;;;;;;;;;5072851;28;20530;-62
2023/08/14 03:28:08;;;;;;;7.10;6.40;;;;;;;;;;5072881;28;20531;-62
2023/08/14 03:30:36;;;;;;;8.83;7.53;;;;;;;;;;5072649;28;20444;-63
2023/08/14 03:33:03;;;;;;;11.40;8.50;;;;;;;;;;5072634;28;20443;-62
2023/08/14 03:35:30;;;;;;;7.93;7.13;;;;;;;;;;5072522;28;20468;-61
2023/08/14 03:37:57;;;;;;;8.70;7.77;;;;;;;;;;5072598;28;20439;-63
2023/08/14 03:40:24;;;;;;;10.43;7.70;;;;;;;;;;5072112;28;20908;-62
2023/08/14 03:42:52;;;;;;;9.60;7.97;;;;;;;;;;5072216;28;20830;-62
2023/08/14 03:45:20;;;;;;;9.23;7.50;;;;;;;;;;5072133;28;20525;-62
2023/08/14 03:47:47;;;;;;;16.63;8.47;;;;;;;;;;5072436;28;20446;-62
2023/08/14 03:50:15;;;;;;;10.63;6.90;;;;;;;;;;5072056;28;20450;-62
2023/08/14 03:52:42;;;;;;;9.37;8.30;;;;;;;;;;5072626;28;20446;-62
2023/08/14 03:55:10;;;;;;;8.47;7.40;;;;;;;;;;5087465;28;20461;-62
2023/08/14 03:57:37;;;;;;;9.90;7.43;;;;;;;;;;5092000;28;20930;-62
2023/08/14 04:00:05;;;;;;;11.37;8.47;;;;;;;;;;5091815;28;20938;-62
2023/08/14 04:02:33;;;;;;;8.90;7.63;;;;;;;;;;5092406;28;20512;-63
2023/08/14 04:05:00;;;;;;;10.40;7.43;;;;;;;;;;5092603;28;20770;-63
2023/08/14 04:07:27;;;;;;;15.53;7.50;;;;;;;;;;5092160;28;20441;-63
2023/08/14 04:09:55;;;;;;;8.60;7.60;;;;;;;;;;5092377;28;20524;-63
2023/08/14 04:12:22;;;;;;;11.20;7.60;;;;;;;;;;5092652;28;20444;-63
2023/08/14 04:14:49;;;;;;;10.37;7.20;;;;;;;;;;5092107;28;20448;-63
2023/08/14 04:17:17;;;;;;;9.23;8.27;;;;;;;;;;5092366;28;20532;-63
2023/08/14 04:19:45;;;;;;;10.13;7.40;;;;;;;;;;5091901;28;20544;-63
2023/08/14 04:22:12;;;;;;;10.73;7.90;;;;;;;;;;5093401;28;20481;-63
2023/08/14 04:24:40;;;;;;;11.23;7.40;;;;;;;;;;5095575;28;20462;-63
2023/08/14 04:27:07;;;;;;;8.43;6.43;;;;;;;;;;5095952;28;20779;-63
2023/08/14 04:29:34;;;;;;;9.53;7.90;;;;;;;;;;5095979;28;20536;-64
2023/08/14 04:32:01;;;;;;;9.40;7.00;;;;;;;;;;5095936;28;20537;-63
2023/08/14 04:34:28;;;;;;;9.27;7.20;;;;;;;;;;5096438;28;20518;-63
2023/08/14 04:36:57;;;;;;;7.53;6.80;;;;;;;;;;5095716;28;20506;-63
2023/08/14 04:39:24;;;;;;;10.07;7.83;;;;;;;;;;5095418;28;20500;-63
2023/08/14 04:41:51;;;;;;;8.70;6.90;;;;;;;;;;5095312;28;20646;-73
2023/08/14 04:44:18;;;;;;;11.43;8.30;;;;;;;;;;5095243;28;21019;-62
2023/08/14 04:46:47;;;;;;;10.97;8.10;;;;;;;;;;5095251;28;20862;-62
2023/08/14 04:49:14;;;;;;;9.03;7.90;;;;;;;;;;5095449;28;20800;-62
2023/08/14 04:51:42;;;;;;;7.90;7.10;;;;;;;;;;5095204;28;20772;-62
2023/08/14 04:54:10;;;;;;;12.30;8.37;;;;;;;;;;5094880;28;20471;-62
2023/08/14 04:56:37;;;;;;;11.93;8.30;;;;;;;;;;5095372;28;20440;-62
2023/08/14 04:59:05;;;;;;;10.63;9.17;;;;;;;;;;5095365;28;20451;-62
2023/08/14 05:01:32;;;;;;;13.40;8.30;;;;;;;;;;5095536;28;20478;-62
2023/08/14 05:03:59;;;;;;;9.10;8.00;;;;;;;;;;5095226;28;20488;-62
2023/08/14 05:06:26;;;;;;;8.33;7.47;;;;;;;;;;5095444;28;20446;-62
2023/08/14 05:08:53;;;;;;;9.00;7.43;;;;;;;;;;5095606;28;20526;-62
2023/08/14 05:11:22;;;;;;;13.63;9.63;;;;;;;;;;5095273;28;20455;-62
2023/08/14 05:13:49;;;;;;;12.10;9.70;;;;;;;;;;5095046;28;20528;-62
2023/08/14 05:16:16;;;;;;;18.73;10.03;;;;;;;;;;5095263;28;20482;-62
2023/08/14 05:18:44;;;;;;;12.50;9.90;;;;;;;;;;5094870;28;20445;-62
2023/08/14 05:21:11;;;;;;;13.97;8.47;;;;;;;;;;5095335;28;20432;-62
2023/08/14 05:23:38;;;;;;;16.40;9.90;;;;;;;;;;5095217;28;20490;-62
2023/08/14 05:26:05;;;;;;;10.70;8.80;;;;;;;;;;5094604;28;20435;-62
2023/08/14 05:28:34;;;;;;;11.43;8.50;;;;;;;;;;5094968;28;20464;-62
2023/08/14 05:31:01;;;;;;;12.37;8.70;;;;;;;;;;5094610;28;20452;-62
2023/08/14 05:33:28;;;;;;;11.30;8.50;;;;;;;;;;5093828;28;20470;-62
2023/08/14 05:35:55;;;;;;;9.87;8.73;;;;;;;;;;5094583;28;20453;-63
2023/08/14 05:38:22;;;;;;;14.03;9.67;;;;;;;;;;5094964;28;20453;-62
2023/08/14 05:40:50;;;;;;;22.70;10.83;;;;;;;;;;5094379;28;20445;-62
2023/08/14 05:43:17;;;;;;;20.33;10.60;;;;;;;;;;5094733;28;20569;-63
2023/08/14 05:45:46;;;;;;;20.47;9.80;;;;;;;;;;5094428;28;20526;-62
2023/08/14 05:48:14;;;;;;;14.80;10.50;;;;;;;;;;5094300;28;20453;-62
2023/08/14 05:50:41;;;;;;;11.90;9.90;;;;;;;;;;5094342;28;20526;-62
2023/08/14 05:53:09;;;;;;;12.40;9.97;;;;;;;;;;5094510;28;20510;-62
2023/08/14 05:55:37;;;;;;;17.30;9.70;;;;;;;;;;5095374;28;20429;-62
2023/08/14 05:58:04;;;;;;;19.73;9.83;;;;;;;;;;5094535;28;20442;-62
2023/08/14 06:00:32;;;;;;;13.57;9.87;;;;;;;;;;5094688;28;20873;-63
2023/08/14 06:03:00;;;;;;;17.50;10.30;;;;;;;;;;5094427;28;20475;-62
2023/08/14 06:05:27;;;;;;;29.63;14.93;;;;;;;;;;5094338;28;20457;-62
2023/08/14 06:07:55;;;;;;;20.70;12.40;;;;;;;;;;5094237;28;20492;-62
2023/08/14 06:10:23;;;;;;;11.47;10.27;;;;;;;;;;5094688;28;20517;-62
2023/08/14 06:12:50;;;;;;;11.50;9.50;;;;;;;;;;5094474;28;20521;-62
2023/08/14 06:15:18;;;;;;;13.50;9.43;;;;;;;;;;5094526;28;20505;-62
2023/08/14 06:17:46;;;;;;;12.33;8.40;;;;;;;;;;5094318;28;20854;-62
2023/08/14 06:20:15;;;;;;;13.90;9.87;;;;;;;;;;5094188;28;20515;-62
2023/08/14 06:22:43;;;;;;;12.37;9.03;;;;;;;;;;5093911;28;20435;-62
2023/08/14 06:25:12;;;;;;;11.60;9.17;;;;;;;;;;5094247;28;20537;-62
2023/08/14 06:27:39;;;;;;;18.23;11.60;;;;;;;;;;5093636;28;20439;-62
2023/08/14 06:30:08;;;;;;;16.07;10.87;;;;;;;;;;5093963;28;20440;-62
2023/08/14 06:32:35;;;;;;;16.90;10.67;;;;;;;;;;5093995;28;20446;-62
2023/08/14 06:35:03;;;;;;;12.10;10.17;;;;;;;;;;5093870;28;20479;-62
2023/08/14 06:37:31;;;;;;;22.00;11.10;;;;;;;;;;5093703;28;20432;-63
2023/08/14 06:39:58;;;;;;;15.47;9.93;;;;;;;;;;5093486;28;20455;-62
2023/08/14 06:42:26;;;;;;;17.77;10.90;;;;;;;;;;5093622;28;20468;-62
2023/08/14 06:44:53;;;;;;;19.97;10.67;;;;;;;;;;5093156;28;21014;-62
2023/08/14 06:47:20;;;;;;;22.80;10.83;;;;;;;;;;5093469;28;20440;-62
2023/08/14 06:49:47;;;;;;;18.67;12.13;;;;;;;;;;5093589;28;20514;-62
2023/08/14 06:52:14;;;;;;;14.40;10.80;;;;;;;;;;5093428;28;20523;-62
2023/08/14 06:54:43;;;;;;;18.43;10.90;;;;;;;;;;5093824;28;20475;-62
2023/08/14 06:57:10;;;;;;;16.90;11.17;;;;;;;;;;5093058;28;20507;-62
2023/08/14 06:59:37;;;;;;;26.80;11.50;;;;;;;;;;5094084;28;20458;-62
2023/08/14 07:02:05;;;;;;;17.57;11.17;;;;;;;;;;5093017;28;20497;-62
2023/08/14 07:04:32;;;;;;;19.13;12.80;;;;;;;;;;5093308;28;20570;-61
2023/08/14 07:06:59;;;;;;;15.63;11.30;;;;;;;;;;5093231;28;20534;-62
2023/08/14 07:09:26;;;;;;;19.13;11.80;;;;;;;;;;5093011;28;20446;-61
2023/08/14 07:11:55;;;;;;;17.93;10.23;;;;;;;;;;5093133;28;20490;-62
2023/08/14 07:14:22;;;;;;;15.80;10.43;;;;;;;;;;5092872;28;20527;-62
2023/08/14 07:16:49;;;;;;;18.37;10.60;;;;;;;;;;5093130;28;20440;-62
2023/08/14 07:19:17;;;;;;;28.10;12.50;;;;;;;;;;5092992;28;20441;-62
2023/08/14 07:21:45;;;;;;;23.70;12.37;;;;;;;;;;5093075;28;20795;-62
2023/08/14 07:24:13;;;;;;;17.60;10.90;;;;;;;;;;5093169;28;20570;-62
2023/08/14 07:26:40;;;;;;;22.77;13.50;;;;;;;;;;5092728;28;20929;-62
2023/08/14 07:29:09;;;;;;;25.10;13.00;;;;;;;;;;5092849;28;20435;-62
2023/08/14 07:31:36;;;;;;;26.30;12.10;;;;;;;;;;5092800;28;20442;-62
2023/08/14 07:34:03;;;;;;;19.50;11.37;;;;;;;;;;5092334;28;20531;-62
2023/08/14 07:36:30;;;;;;;19.00;14.07;;;;;;;;;;5093138;28;20455;-62
2023/08/14 07:38:57;;;;;;;18.83;11.93;;;;;;;;;;5092734;28;20838;-62
2023/08/14 07:41:25;;;;;;;21.07;11.87;;;;;;;;;;5092470;28;20527;-62
2023/08/14 07:43:52;;;;;;;18.50;9.80;;;;;;;;;;5092453;28;20832;-62
2023/08/14 07:46:20;;;;;;;17.23;11.67;;;;;;;;;;5092665;28;20528;-62
2023/08/14 07:48:48;;;;;;;14.20;9.83;;;;;;;;;;5092687;28;20808;-62
2023/08/14 07:51:15;;;;;;;23.13;11.20;;;;;;;;;;5092845;28;20468;-62
2023/08/14 07:53:42;;;;;;;15.00;9.27;;;;;;;;;;5092067;28;20533;-62
2023/08/14 07:56:09;;;;;;;16.00;9.17;;;;;;;;;;5085018;28;20944;-62
2023/08/14 07:58:37;;;;;;;14.07;8.00;;;;;;;;;;5075620;28;20464;-62
2023/08/14 08:01:04;;;;;;;11.83;8.30;;;;;;;;;;5076648;28;20544;-62
2023/08/14 08:03:33;;;;;;;13.87;7.67;;;;;;;;;;5076250;28;20478;-62
2023/08/14 08:06:00;;;;;;;13.47;8.30;;;;;;;;;;5076363;28;20433;-62
2023/08/14 08:08:27;;;;;;;9.50;7.60;;;;;;;;;;5076469;28;20442;-61
2023/08/14 08:10:54;;;;;;;15.17;8.07;;;;;;;;;;5076503;28;20458;-62
2023/08/14 08:13:21;;;;;;;10.27;6.90;;;;;;;;;;5076056;28;20451;-62
2023/08/14 08:15:49;;;;;;;11.90;6.23;;;;;;;;;;5076037;28;20480;-62
2023/08/14 08:18:16;;;;;;;12.47;6.83;;;;;;;;;;5075573;28;20533;-62
2023/08/14 08:20:44;;;;;;;10.47;6.87;;;;;;;;;;5075667;28;20931;-62
2023/08/14 08:23:12;;;;;;;9.30;6.60;;;;;;;;;;5075430;28;20441;-62
2023/08/14 08:25:39;;;;;;;12.73;8.13;;;;;;;;;;5075691;28;20438;-62
2023/08/14 08:28:06;;;;;;;13.87;7.37;;;;;;;;;;5075504;28;20880;-62
2023/08/14 08:30:33;;;;;;;18.63;7.33;;;;;;;;;;5075859;28;20533;-62
2023/08/14 08:33:00;;;;;;;15.33;6.57;;;;;;;;;;5075832;28;20572;-62
2023/08/14 08:35:28;;;;;;;12.60;7.50;;;;;;;;;;5075721;28;20435;-62
2023/08/14 08:37:57;;;;;;;14.33;6.57;;;;;;;;;;5076206;28;20837;-62
2023/08/14 08:40:25;;;;;;;12.70;6.87;;;;;;;;;;5076519;28;20470;-62
2023/08/14 08:42:53;;;;;;;20.70;7.50;;;;;;;;;;5076480;28;20761;-62
2023/08/14 08:45:21;;;;;;;18.60;7.00;;;;;;;;;;5075471;28;20515;-62
2023/08/14 08:47:50;;;;;;;8.87;7.13;;;;;;;;;;5075171;28;20443;-62
2023/08/14 08:50:17;;;;;;;11.33;7.40;;;;;;;;;;5074913;28;20933;-62
2023/08/14 08:52:45;;;;;;;50.90;11.27;;;;;;;;;;5075037;28;20865;-62
2023/08/14 08:55:13;;;;;;;21.00;7.87;;;;;;;;;;5075140;28;20454;-62
2023/08/14 08:57:42;;;;;;;29.87;8.27;;;;;;;;;;5074883;28;20451;-62
2023/08/14 09:00:10;;;;;;;13.77;5.80;;;;;;;;;;5075182;28;20496;-62
2023/08/14 09:02:37;;;;;;;39.07;7.50;;;;;;;;;;5075179;28;20524;-61
2023/08/14 09:05:05;;;;;;;15.27;6.20;;;;;;;;;;5075350;28;20499;-62
2023/08/14 09:07:35;;;;;;;11.13;5.50;;;;;;;;;;5075081;28;20438;-62
2023/08/14 09:10:02;;;;;;;9.87;6.00;;;;;;;;;;5073877;28;20443;-62
2023/08/14 09:12:31;;;;;;;12.13;5.40;;;;;;;;;;5074894;28;20481;-62
2023/08/14 09:15:01;;;;;;;12.80;6.23;;;;;;;;;;5074976;28;20446;-62
2023/08/14 09:17:28;;;;;;;23.30;6.17;;;;;;;;;;5075004;28;20445;-62
2023/08/14 09:19:56;;;;;;;99.90;15.30;;;;;;;;;;5074788;28;20439;-62
2023/08/14 09:22:23;;;;;;;186.53;22.60;;;;;;;;;;5074710;28;20446;-62
2023/08/14 09:24:51;;;;;;;11.07;4.23;;;;;;;;;;5074739;28;20488;-62
2023/08/14 09:27:18;;;;;;;22.80;6.00;;;;;;;;;;5074643;28;20456;-62
2023/08/14 09:29:47;;;;;;;9.77;5.07;;;;;;;;;;5074634;28;20433;-62
2023/08/14 09:32:14;;;;;;;62.10;8.30;;;;;;;;;;5074377;28;20434;-61
2023/08/14 09:34:41;;;;;;;28.03;5.50;;;;;;;;;;5074154;28;20446;-62
2023/08/14 09:37:09;;;;;;;5.40;3.13;;;;;;;;;;5074736;28;20848;-62
2023/08/14 09:39:36;;;;;;;6.23;3.20;;;;;;;;;;5074822;28;20529;-62
2023/08/14 09:42:03;;;;;;;15.10;4.00;;;;;;;;;;5074469;28;20529;-61
2023/08/14 09:44:30;;;;;;;6.20;2.80;;;;;;;;;;5074233;28;20891;-62
2023/08/14 09:47:01;;;;;;;7.30;3.53;;;;;;;;;;5074183;28;21014;-62
2023/08/14 09:49:29;;;;;;;5.30;3.30;;;;;;;;;;5074702;28;20423;-62
2023/08/14 09:51:56;;;;;;;6.60;3.23;;;;;;;;;;5073874;28;20815;-62
2023/08/14 09:54:33;;;;;;;4.67;3.37;;;;;;;;;;5074755;28;20477;-63
2023/08/14 09:57:03;;;;;;;7.10;3.03;;;;;;;;;;5074226;28;20457;-63
2023/08/14 09:59:30;;;;;;;16.77;5.23;;;;;;;;;;5073715;28;20438;-63
2023/08/14 10:02:00;;;;;;;15.17;3.83;;;;;;;;;;5074431;28;20448;-63
2023/08/14 10:04:30;;;;;;;18.27;3.77;;;;;;;;;;5073546;28;20466;-62
2023/08/14 10:06:58;;;;;;;6.07;2.80;;;;;;;;;;5074192;28;20440;-63
2023/08/14 10:09:27;;;;;;;14.63;5.30;;;;;;;;;;5073502;28;20536;-62
2023/08/14 10:11:56;;;;;;;28.50;10.13;;;;;;;;;;5073640;28;20431;-62
2023/08/14 10:14:24;;;;;;;8.80;3.20;;;;;;;;;;5073193;28;20548;-62
2023/08/14 10:16:54;;;;;;;8.53;3.50;;;;;;;;;;5073686;28;20476;-62
2023/08/14 10:19:25;;;;;;;7.93;3.23;;;;;;;;;;5073536;28;20787;-62
2023/08/14 10:21:54;;;;;;;6.60;4.10;;;;;;;;;;5073342;28;20442;-62
2023/08/14 10:24:22;;;;;;;13.27;5.73;;;;;;;;;;5073218;28;20483;-62
2023/08/14 10:26:50;;;;;;;7.67;3.70;;;;;;;;;;5073338;28;20865;-62
2023/08/14 10:29:17;;;;;;;9.63;3.73;;;;;;;;;;5072989;28;20442;-62
2023/08/14 10:31:46;;;;;;;5.07;2.83;;;;;;;;;;5073259;28;20444;-62
2023/08/14 10:34:14;;;;;;;6.73;2.87;;;;;;;;;;5073181;28;20452;-62
2023/08/14 10:36:42;;;;;;;9.33;3.70;;;;;;;;;;5072960;28;20451;-62
2023/08/14 10:39:10;;;;;;;37.23;10.03;;;;;;;;;;5073183;28;20437;-62
2023/08/14 10:41:38;;;;;;;10.47;3.80;;;;;;;;;;5073002;28;20850;-62
2023/08/14 10:44:09;;;;;;;14.23;5.30;;;;;;;;;;5073430;28;20529;-62
2023/08/14 10:46:38;;;;;;;4.37;3.17;;;;;;;;;;5072696;28;20518;-62
2023/08/14 10:49:05;;;;;;;13.13;4.90;;;;;;;;;;5073311;28;20445;-62
2023/08/14 10:51:33;;;;;;;19.50;4.30;;;;;;;;;;5072663;28;20443;-62
2023/08/14 10:54:09;;;;;;;7.30;3.53;;;;;;;;;;5072632;28;20471;-62
2023/08/14 10:56:43;;;;;;;8.43;3.17;;;;;;;;;;5072915;28;20434;-62
2023/08/14 10:59:20;;;;;;;9.27;3.63;;;;;;;;;;5073020;28;20431;-62
2023/08/14 11:01:51;;;;;;;7.10;3.67;;;;;;;;;;5072866;28;20455;-62
2023/08/14 11:04:19;;;;;;;7.60;3.97;;;;;;;;;;5072633;28;20475;-62
2023/08/14 11:07:08;;;;;;;8.90;3.27;;;;;;;;;;5072728;28;20446;-62
2023/08/14 11:09:37;;;;;;;8.43;3.07;;;;;;;;;;5072963;28;20425;-62
2023/08/14 11:12:06;;;;;;;8.70;3.30;;;;;;;;;;5072641;28;20439;-62
2023/08/14 11:14:36;;;;;;;6.60;3.50;;;;;;;;;;5073205;28;20539;-62
2023/08/14 11:17:03;;;;;;;8.20;2.83;;;;;;;;;;5072974;28;20419;-62
2023/08/14 11:19:31;;;;;;;5.10;3.10;;;;;;;;;;5072609;28;20463;-61
2023/08/14 11:21:58;;;;;;;7.27;3.57;;;;;;;;;;5072762;28;20443;-62
2023/08/14 11:24:25;;;;;;;4.70;3.10;;;;;;;;;;5072718;28;20484;-62
2023/08/14 11:26:54;;;;;;;5.67;3.00;;;;;;;;;;5072373;28;20446;-62
2023/08/14 11:29:21;;;;;;;5.37;3.00;;;;;;;;;;5072468;28;20447;-62
2023/08/14 11:31:49;;;;;;;5.90;3.00;;;;;;;;;;5071193;28;20448;-62
2023/08/14 11:34:16;;;;;;;9.47;3.90;;;;;;;;;;5072643;28;20531;-62
2023/08/14 11:36:43;;;;;;;5.53;2.73;;;;;;;;;;5072044;28;20437;-61
2023/08/14 11:39:11;;;;;;;8.60;3.77;;;;;;;;;;5072566;28;20528;-61
2023/08/14 11:41:38;;;;;;;4.20;3.10;;;;;;;;;;5072284;28;20447;-61
2023/08/14 11:44:07;;;;;;;12.07;3.53;;;;;;;;;;5072552;28;20822;-61
2023/08/14 11:46:34;;;;;;;5.57;3.13;;;;;;;;;;5071238;28;20531;-61
2023/08/14 11:49:01;;;;;;;7.50;4.70;;;;;;;;;;5071470;28;20488;-61
2023/08/14 11:51:30;;;;;;;7.23;3.77;;;;;;;;;;5071745;28;20441;-61
2023/08/14 11:53:57;;;;;;;11.23;3.70;;;;;;;;;;5071566;28;20479;-61
2023/08/14 11:56:24;;;;;;;7.63;3.27;;;;;;;;;;5072071;28;20445;-61
2023/08/14 11:58:52;;;;;;;5.23;2.70;;;;;;;;;;5071827;28;20939;-61
2023/08/14 12:01:21;;;;;;;4.83;3.00;;;;;;;;;;5071828;28;20469;-61
2023/08/14 12:03:48;;;;;;;7.90;3.30;;;;;;;;;;5071596;28;20465;-61
2023/08/14 12:06:15;;;;;;;6.23;3.43;;;;;;;;;;5071586;28;20561;-62
2023/08/14 12:08:43;;;;;;;8.53;3.57;;;;;;;;;;5071860;28;20964;-62
2023/08/14 12:11:10;;;;;;;10.70;3.40;;;;;;;;;;5071646;28;20441;-62
2023/08/14 12:13:37;;;;;;;8.60;3.40;;;;;;;;;;5071775;28;20537;-62
2023/08/14 12:16:06;;;;;;;9.97;4.07;;;;;;;;;;5079475;28;20443;-62
2023/08/14 12:18:35;;;;;;;7.83;3.53;;;;;;;;;;5092452;28;20525;-62
2023/08/14 12:21:02;;;;;;;12.23;3.50;;;;;;;;;;5092628;28;20513;-62
2023/08/14 12:23:29;;;;;;;6.63;3.27;;;;;;;;;;5091786;28;21026;-62
2023/08/14 12:25:57;;;;;;;6.20;3.03;;;;;;;;;;5091758;28;20474;-62
2023/08/14 12:28:24;;;;;;;6.23;2.97;;;;;;;;;;5091664;28;20880;-62
2023/08/14 12:30:51;;;;;;;10.03;4.20;;;;;;;;;;5091804;28;20518;-62
2023/08/14 12:33:18;;;;;;;7.30;3.93;;;;;;;;;;5091707;28;20459;-62
2023/08/14 12:35:47;;;;;;;3.77;2.63;;;;;;;;;;5091614;28;20440;-62
2023/08/14 12:38:14;;;;;;;10.57;4.33;;;;;;;;;;5092574;28;20534;-62
2023/08/14 12:40:41;;;;;;;6.57;4.07;;;;;;;;;;5091899;28;20534;-62
2023/08/14 12:43:08;;;;;;;4.60;2.80;;;;;;;;;;5093197;28;20435;-62
2023/08/14 12:45:36;;;;;;;4.77;3.10;;;;;;;;;;5094938;28;20507;-62
2023/08/14 12:48:03;;;;;;;5.20;3.30;;;;;;;;;;5095830;28;20770;-62
2023/08/14 12:50:31;;;;;;;5.17;3.30;;;;;;;;;;5096427;28;20453;-62
2023/08/14 12:52:59;;;;;;;5.07;2.70;;;;;;;;;;5095365;28;20441;-61
2023/08/14 12:55:27;;;;;;;5.10;2.93;;;;;;;;;;5095497;28;20528;-62
2023/08/14 12:57:54;;;;;;;4.80;2.90;;;;;;;;;;5095412;28;20451;-60
2023/08/14 13:00:21;;;;;;;8.30;3.60;;;;;;;;;;5095954;28;20444;-61
2023/08/14 13:02:48;;;;;;;5.47;3.23;;;;;;;;;;5094924;28;20451;-61
2023/08/14 13:05:16;;;;;;;6.77;3.07;;;;;;;;;;5095434;28;20476;-61
2023/08/14 13:07:43;;;;;;;6.93;3.33;;;;;;;;;;5095837;28;20440;-61
2023/08/14 13:10:12;;;;;;;6.33;2.97;;;;;;;;;;5095643;28;20452;-61
2023/08/14 13:12:39;;;;;;;7.17;3.20;;;;;;;;;;5095262;28;20528;-61
2023/08/14 13:15:07;;;;;;;8.23;3.90;;;;;;;;;;5095326;28;20440;-62
2023/08/14 13:17:34;;;;;;;9.60;3.83;;;;;;;;;;5095335;28;20510;-62
2023/08/14 13:20:01;;;;;;;6.33;3.30;;;;;;;;;;5095161;28;20447;-62
2023/08/14 13:22:28;;;;;;;6.77;3.60;;;;;;;;;;5094771;28;21004;-60
2023/08/14 13:24:55;;;;;;;7.13;3.87;;;;;;;;;;5094967;28;20803;-62
2023/08/14 13:27:24;;;;;;;6.57;2.90;;;;;;;;;;5094923;28;20447;-62
2023/08/14 13:29:56;;;;;;;4.33;2.93;;;;;;;;;;5094806;28;20437;-62
2023/08/14 13:32:23;;;;;;;6.07;3.30;;;;;;;;;;5095003;28;20517;-62
2023/08/14 13:34:50;;;;;;;7.97;3.47;;;;;;;;;;5094931;28;20510;-62
2023/08/14 13:37:18;;;;;;;5.30;3.33;;;;;;;;;;5075584;28;20528;-62
2023/08/14 13:39:45;;;;;;;4.77;3.30;;;;;;;;;;5074560;28;20522;-62
2023/08/14 13:42:12;;;;;;;5.47;2.63;;;;;;;;;;5074832;28;20467;-62
2023/08/14 13:44:41;;;;;;;7.80;3.47;;;;;;;;;;5074099;28;20874;-62
2023/08/14 13:47:08;;;;;;;10.43;3.43;;;;;;;;;;5074301;28;20484;-60
2023/08/14 13:49:35;;;;;;;3.13;2.77;;;;;;;;;;5074265;28;20501;-60
2023/08/14 13:52:02;;;;;;;5.30;2.77;;;;;;;;;;5074563;28;20415;-67
2023/08/14 13:54:29;;;;;;;4.30;2.30;;;;;;;;;;5073461;28;20453;-63
2023/08/14 13:56:57;;;;;;;4.73;2.80;;;;;;;;;;5074650;28;20519;-63
2023/08/14 13:59:24;;;;;;;4.03;3.03;;;;;;;;;;5073128;28;20532;-64
2023/08/14 14:01:53;;;;;;;4.40;2.90;;;;;;;;;;5073495;28;20430;-61
2023/08/14 14:04:20;;;;;;;3.43;2.87;;;;;;;;;;5073820;28;20791;-62
2023/08/14 14:06:47;;;;;;;4.23;2.80;;;;;;;;;;5074054;28;20484;-61
2023/08/14 14:09:14;;;;;;;4.27;2.97;;;;;;;;;;5074281;28;20472;-61
2023/08/14 14:11:41;;;;;;;5.80;3.53;;;;;;;;;;5073537;28;20421;-64
2023/08/14 14:14:08;;;;;;;8.50;3.33;;;;;;;;;;5073492;28;20454;-62
2023/08/14 14:16:51;;;;;;;6.57;3.60;;;;;;;;;;5074398;28;20424;-62
2023/08/14 14:19:20;;;;;;;3.90;2.90;;;;;;;;;;5073740;28;20830;-62
2023/08/14 14:21:47;;;;;;;7.63;3.80;;;;;;;;;;5073581;28;20513;-62
2023/08/14 14:24:14;;;;;;;5.43;3.17;;;;;;;;;;5073221;28;20801;-64
2023/08/14 14:26:41;;;;;;;4.90;3.40;;;;;;;;;;5073805;28;20542;-62
2023/08/14 14:29:09;;;;;;;7.40;3.10;;;;;;;;;;5088668;28;20763;-62
2023/08/14 14:31:36;;;;;;;7.03;3.20;;;;;;;;;;5093656;28;20421;-62
2023/08/14 14:34:03;;;;;;;4.37;3.10;;;;;;;;;;5093659;28;20406;-62
2023/08/14 14:36:32;;;;;;;5.97;3.40;;;;;;;;;;5093299;28;20510;-62
2023/08/14 14:38:59;;;;;;;3.87;3.33;;;;;;;;;;5093208;28;20426;-63